createdAt,value
2023-08-11T00:00:22.909Z,1.60
2023-08-11T00:01:26.373Z,1.42
2023-08-11T00:02:31.216Z,1.48
2023-08-11T00:03:34.410Z,1.60
2023-08-11T00:04:37.725Z,1.75
2023-08-11T00:05:41.138Z,1.60
2023-08-11T00:06:44.277Z,1.52
2023-08-11T00:07:55.917Z,1.67
2023-08-11T00:10:01.977Z,1.50
2023-08-11T00:11:05.390Z,1.75
2023-08-11T00:12:08.575Z,1.50
2023-08-11T00:13:14.668Z,1.75
2023-08-11T00:14:18.259Z,1.45
2023-08-11T00:15:21.632Z,1.70
2023-08-11T00:16:26.033Z,1.85
2023-08-11T00:17:29.084Z,1.80
2023-08-11T00:18:32.800Z,1.33
2023-08-11T00:19:36.201Z,1.60
2023-08-11T00:20:39.353Z,1.50
2023-08-11T00:21:42.923Z,1.40
2023-08-11T00:22:45.901Z,1.70
2023-08-11T00:23:49.774Z,1.85
2023-08-11T00:24:52.719Z,1.70
2023-08-11T00:25:55.813Z,1.90
2023-08-11T00:26:59.122Z,1.67
2023-08-11T00:28:02.195Z,1.55
2023-08-11T00:29:06.145Z,1.73
2023-08-11T00:30:10.730Z,1.37
2023-08-11T00:31:15.106Z,1.77
2023-08-11T00:32:18.216Z,1.67
2023-08-11T00:33:21.277Z,1.80
2023-08-11T00:34:24.331Z,1.65
2023-08-11T00:35:27.252Z,1.70
2023-08-11T00:36:30.357Z,2.10
2023-08-11T00:37:34.985Z,1.73
2023-08-11T00:38:42.063Z,1.70
2023-08-11T00:39:45.107Z,1.73
2023-08-11T00:40:48.103Z,1.92
2023-08-11T00:41:51.586Z,1.67
2023-08-11T00:42:54.472Z,1.73
2023-08-11T00:43:57.890Z,2.00
2023-08-11T00:45:01.053Z,1.67
2023-08-11T00:46:13.214Z,1.62
2023-08-11T00:47:16.728Z,1.67
2023-08-11T00:48:19.893Z,1.52
2023-08-11T00:49:23.135Z,1.62
2023-08-11T00:50:26.444Z,1.65
2023-08-11T00:51:30.235Z,1.67
2023-08-11T00:52:33.328Z,1.65
2023-08-11T00:53:38.005Z,1.90
2023-08-11T00:54:42.937Z,1.70
2023-08-11T00:55:47.589Z,1.70
2023-08-11T00:56:50.832Z,1.83
2023-08-11T00:57:54.127Z,1.77
2023-08-11T00:58:57.483Z,1.90
2023-08-11T01:00:02.003Z,1.33
2023-08-11T01:01:05.976Z,1.95
2023-08-11T01:02:11.828Z,2.15
2023-08-11T01:03:14.946Z,1.65
2023-08-11T01:04:18.464Z,2.03
2023-08-11T01:05:21.711Z,1.77
2023-08-11T01:06:24.770Z,1.70
2023-08-11T01:07:40.052Z,1.85
2023-08-11T01:09:01.952Z,1.80
2023-08-11T01:10:21.752Z,1.90
2023-08-11T01:11:46.976Z,1.73
2023-08-11T01:13:17.342Z,1.55
2023-08-11T01:14:26.145Z,2.00
2023-08-11T01:15:35.897Z,1.58
2023-08-11T01:16:39.355Z,1.90
2023-08-11T01:17:43.756Z,1.70
2023-08-11T01:18:47.907Z,2.00
2023-08-11T01:19:50.978Z,1.90
2023-08-11T01:20:56.661Z,2.08
2023-08-11T01:22:02.440Z,1.98
2023-08-11T01:23:07.710Z,1.90
2023-08-11T01:24:10.802Z,1.80
2023-08-11T01:25:14.266Z,2.10
2023-08-11T01:26:17.546Z,1.90
2023-08-11T01:27:20.998Z,1.83
2023-08-11T01:28:24.059Z,1.90
2023-08-11T01:29:27.714Z,2.10
2023-08-11T01:30:31.603Z,2.10
2023-08-11T01:31:34.818Z,2.17
2023-08-11T01:32:38.048Z,1.87
2023-08-11T01:33:41.077Z,1.92
2023-08-11T01:34:43.987Z,2.17
2023-08-11T01:35:46.960Z,2.20
2023-08-11T01:36:51.984Z,2.05
2023-08-11T01:37:54.969Z,2.15
2023-08-11T01:38:59.325Z,1.80
2023-08-11T01:40:02.620Z,2.20
2023-08-11T01:41:06.635Z,2.10
2023-08-11T01:42:09.605Z,2.30
2023-08-11T01:43:15.515Z,1.77
2023-08-11T01:44:19.076Z,2.00
2023-08-11T01:45:23.346Z,2.30
2023-08-11T01:46:28.762Z,2.10
2023-08-11T01:47:32.916Z,2.00
2023-08-11T01:48:38.119Z,1.95
2023-08-11T01:49:41.407Z,2.17
2023-08-11T01:50:45.350Z,1.90
2023-08-11T01:51:48.366Z,2.15
2023-08-11T01:52:53.684Z,2.42
2023-08-11T01:53:56.757Z,1.80
2023-08-11T01:55:00.064Z,1.83
2023-08-11T01:56:03.922Z,1.85
2023-08-11T01:57:07.470Z,2.25
2023-08-11T01:58:11.592Z,2.08
2023-08-11T01:59:19.727Z,2.05
2023-08-11T02:00:23.292Z,1.75
2023-08-11T02:01:26.349Z,2.10
2023-08-11T02:02:29.497Z,2.37
2023-08-11T02:03:32.838Z,1.77
2023-08-11T02:04:35.979Z,2.05
2023-08-11T02:05:39.023Z,2.20
2023-08-11T02:06:42.161Z,2.35
2023-08-11T02:07:49.123Z,2.10
2023-08-11T02:08:51.981Z,2.40
2023-08-11T02:09:55.941Z,1.95
2023-08-11T02:10:59.206Z,2.28
2023-08-11T02:12:02.153Z,2.22
2023-08-11T02:13:05.152Z,2.20
2023-08-11T02:14:08.242Z,1.95
2023-08-11T02:15:14.376Z,2.25
2023-08-11T02:16:17.668Z,2.25
2023-08-11T02:17:21.324Z,2.45
2023-08-11T02:18:24.410Z,2.03
2023-08-11T02:19:27.345Z,2.30
2023-08-11T02:20:30.910Z,2.55
2023-08-11T02:21:34.971Z,2.35
2023-08-11T02:22:38.118Z,2.05
2023-08-11T02:23:41.064Z,2.25
2023-08-11T02:24:44.088Z,2.20
2023-08-11T02:25:47.164Z,2.05
2023-08-11T02:26:50.272Z,1.90
2023-08-11T02:27:53.987Z,2.30
2023-08-11T02:28:56.999Z,2.03
2023-08-11T02:29:59.927Z,2.40
2023-08-11T02:31:04.099Z,2.30
2023-08-11T02:32:07.214Z,2.20
2023-08-11T02:33:10.597Z,2.20
2023-08-11T02:34:13.770Z,2.15
2023-08-11T02:35:18.979Z,2.30
2023-08-11T02:36:22.154Z,2.40
2023-08-11T02:37:25.306Z,2.20
2023-08-11T02:38:28.565Z,2.20
2023-08-11T02:39:31.591Z,2.03
2023-08-11T02:40:36.517Z,2.35
2023-08-11T02:41:39.492Z,2.20
2023-08-11T02:42:49.895Z,2.22
2023-08-11T02:43:53.431Z,2.17
2023-08-11T02:44:56.684Z,2.50
2023-08-11T02:45:59.782Z,2.20
2023-08-11T02:47:02.795Z,2.58
2023-08-11T02:48:06.128Z,2.20
2023-08-11T02:49:09.267Z,2.30
2023-08-11T02:50:13.044Z,2.22
2023-08-11T02:51:16.052Z,2.12
2023-08-11T02:52:19.494Z,2.15
2023-08-11T02:53:22.445Z,2.60
2023-08-11T02:54:25.543Z,2.08
2023-08-11T02:55:28.636Z,2.40
2023-08-11T02:56:31.925Z,2.50
2023-08-11T02:57:35.721Z,2.33
2023-08-11T02:58:38.572Z,2.50
2023-08-11T02:59:41.544Z,2.40
2023-08-11T03:00:44.578Z,2.50
2023-08-11T03:01:47.651Z,1.98
2023-08-11T03:02:50.603Z,2.40
2023-08-11T03:03:54.170Z,2.53
2023-08-11T03:04:57.153Z,2.37
2023-08-11T03:06:00.310Z,2.50
2023-08-11T03:07:07.082Z,2.55
2023-08-11T03:08:10.111Z,2.45
2023-08-11T03:09:13.744Z,2.50
2023-08-11T03:10:17.217Z,2.37
2023-08-11T03:11:20.290Z,2.50
2023-08-11T03:12:23.272Z,2.60
2023-08-11T03:13:26.407Z,2.50
2023-08-11T03:14:29.311Z,2.30
2023-08-11T03:15:32.447Z,2.20
2023-08-11T03:16:35.630Z,2.67
2023-08-11T03:17:38.805Z,2.78
2023-08-11T03:18:42.010Z,2.45
2023-08-11T03:19:44.926Z,2.45
2023-08-11T03:20:47.931Z,2.20
2023-08-11T03:21:50.874Z,2.28
2023-08-11T03:22:53.864Z,2.40
2023-08-11T03:23:56.737Z,2.53
2023-08-11T03:24:59.673Z,2.60
2023-08-11T03:26:02.694Z,2.60
2023-08-11T03:27:05.661Z,2.10
2023-08-11T03:28:08.990Z,2.22
2023-08-11T03:29:12.166Z,2.08
2023-08-11T03:30:15.284Z,2.35
2023-08-11T03:31:18.440Z,2.33
2023-08-11T03:32:21.424Z,2.50
2023-08-11T03:33:24.889Z,2.55
2023-08-11T03:34:27.957Z,2.30
2023-08-11T03:35:33.664Z,2.40
2023-08-11T03:36:36.713Z,2.35
2023-08-11T03:37:39.940Z,2.40
2023-08-11T03:38:43.024Z,2.40
2023-08-11T03:39:46.003Z,2.50
2023-08-11T03:40:49.174Z,2.60
2023-08-11T03:41:53.540Z,2.30
2023-08-11T03:42:56.574Z,2.40
2023-08-11T03:43:59.520Z,2.35
2023-08-11T03:45:02.605Z,2.45
2023-08-11T03:46:05.625Z,2.20
2023-08-11T03:47:08.712Z,2.35
2023-08-11T03:48:12.039Z,2.20
2023-08-11T03:49:15.009Z,2.25
2023-08-11T03:50:17.928Z,2.12
2023-08-11T03:51:20.897Z,2.40
2023-08-11T03:52:23.829Z,2.30
2023-08-11T03:53:27.064Z,1.92
2023-08-11T03:54:43.404Z,2.40
2023-08-11T03:55:48.384Z,2.20
2023-08-11T03:56:51.377Z,2.60
2023-08-11T03:57:54.429Z,2.30
2023-08-11T03:58:57.694Z,2.30
2023-08-11T04:00:00.631Z,2.20
2023-08-11T04:01:03.653Z,2.55
2023-08-11T04:02:06.911Z,2.37
2023-08-11T04:03:10.896Z,2.47
2023-08-11T04:04:14.076Z,2.35
2023-08-11T04:05:18.346Z,2.65
2023-08-11T04:06:21.480Z,2.58
2023-08-11T04:07:24.435Z,2.20
2023-08-11T04:08:28.589Z,2.25
2023-08-11T04:09:31.554Z,2.50
2023-08-11T04:10:36.544Z,2.60
2023-08-11T04:11:39.509Z,2.30
2023-08-11T04:12:42.543Z,2.12
2023-08-11T04:13:45.496Z,2.75
2023-08-11T04:14:48.659Z,2.25
2023-08-11T04:15:52.863Z,2.37
2023-08-11T04:16:56.129Z,2.10
2023-08-11T04:17:59.414Z,2.25
2023-08-11T04:19:02.786Z,2.85
2023-08-11T04:20:14.609Z,2.55
2023-08-11T04:21:18.504Z,2.25
2023-08-11T04:22:32.908Z,2.30
2023-08-11T04:23:41.789Z,2.50
2023-08-11T04:24:44.659Z,2.12
2023-08-11T04:25:47.557Z,2.50
2023-08-11T04:26:50.433Z,2.12
2023-08-11T04:27:53.346Z,2.33
2023-08-11T04:28:56.388Z,2.58
2023-08-11T04:29:59.399Z,2.45
2023-08-11T04:31:02.446Z,2.28
2023-08-11T04:32:06.344Z,2.60
2023-08-11T04:33:09.860Z,2.10
2023-08-11T04:34:12.994Z,1.90
2023-08-11T04:35:15.996Z,2.45
2023-08-11T04:36:18.949Z,2.10
2023-08-11T04:37:21.921Z,2.58
2023-08-11T04:38:25.122Z,2.20
2023-08-11T04:39:28.034Z,2.15
2023-08-11T04:40:31.430Z,2.50
2023-08-11T04:41:34.232Z,2.50
2023-08-11T04:42:37.372Z,2.50
2023-08-11T04:43:40.277Z,2.62
2023-08-11T04:44:43.265Z,2.20
2023-08-11T04:45:46.548Z,2.28
2023-08-11T04:46:49.660Z,2.20
2023-08-11T04:47:52.745Z,2.25
2023-08-11T04:48:55.723Z,2.42
2023-08-11T04:49:58.783Z,2.37
2023-08-11T04:51:01.785Z,2.50
2023-08-11T04:52:05.175Z,2.05
2023-08-11T04:53:08.511Z,2.35
2023-08-11T04:54:13.040Z,2.35
2023-08-11T04:55:16.065Z,2.12
2023-08-11T04:56:18.985Z,2.42
2023-08-11T04:57:22.010Z,2.30
2023-08-11T04:58:25.055Z,2.33
2023-08-11T04:59:28.052Z,2.03
2023-08-11T05:00:31.020Z,2.33
2023-08-11T05:01:34.122Z,2.60
2023-08-11T05:02:37.212Z,2.50
2023-08-11T05:03:40.398Z,2.30
2023-08-11T05:04:43.616Z,2.53
2023-08-11T05:05:46.785Z,2.10
2023-08-11T05:06:49.718Z,2.60
2023-08-11T05:07:52.832Z,2.55
2023-08-11T05:08:55.996Z,2.40
2023-08-11T05:09:59.421Z,2.42
2023-08-11T05:11:02.479Z,2.20
2023-08-11T05:12:06.251Z,2.12
2023-08-11T05:13:09.443Z,2.20
2023-08-11T05:14:15.754Z,1.85
2023-08-11T05:15:19.405Z,2.20
2023-08-11T05:16:22.579Z,2.47
2023-08-11T05:17:25.749Z,2.60
2023-08-11T05:18:37.966Z,2.35
2023-08-11T05:19:46.650Z,2.08
2023-08-11T05:20:49.561Z,2.15
2023-08-11T05:21:53.085Z,1.92
2023-08-11T05:22:56.142Z,2.00
2023-08-11T05:23:59.106Z,1.95
2023-08-11T05:25:06.107Z,2.10
2023-08-11T05:26:09.136Z,2.47
2023-08-11T05:27:12.163Z,2.10
2023-08-11T05:28:15.315Z,1.90
2023-08-11T05:29:18.337Z,1.70
2023-08-11T05:30:26.003Z,2.20
2023-08-11T05:31:29.154Z,1.90
2023-08-11T05:32:33.102Z,1.67
2023-08-11T05:33:36.477Z,2.15
2023-08-11T05:34:40.305Z,2.03
2023-08-11T05:35:43.239Z,2.15
2023-08-11T05:36:46.192Z,2.03
2023-08-11T05:37:48.988Z,2.42
2023-08-11T05:38:52.219Z,2.22
2023-08-11T05:39:55.346Z,1.67
2023-08-11T05:40:58.506Z,2.30
2023-08-11T05:42:02.184Z,2.00
2023-08-11T05:43:05.040Z,2.03
2023-08-11T05:44:08.194Z,2.10
2023-08-11T05:45:11.757Z,2.03
2023-08-11T05:46:15.479Z,2.53
2023-08-11T05:47:18.440Z,1.80
2023-08-11T05:48:21.560Z,1.90
2023-08-11T05:49:24.523Z,1.92
2023-08-11T05:50:27.598Z,2.00
2023-08-11T05:51:30.681Z,2.00
2023-08-11T05:52:33.627Z,1.85
2023-08-11T05:53:36.635Z,1.70
2023-08-11T05:54:39.579Z,2.05
2023-08-11T05:55:42.751Z,2.00
2023-08-11T05:56:45.673Z,2.00
2023-08-11T05:57:48.784Z,2.10
2023-08-11T05:58:51.827Z,1.80
2023-08-11T05:59:54.833Z,1.90
2023-08-11T06:00:58.076Z,2.12
2023-08-11T06:02:01.139Z,2.10
2023-08-11T06:03:04.330Z,1.62
2023-08-11T06:04:07.549Z,2.10
2023-08-11T06:05:10.821Z,2.00
2023-08-11T06:06:14.064Z,2.10
2023-08-11T06:07:17.190Z,2.08
2023-08-11T06:08:20.166Z,2.25
2023-08-11T06:09:24.322Z,1.87
2023-08-11T06:10:28.017Z,1.70
2023-08-11T06:11:30.899Z,1.75
2023-08-11T06:12:34.092Z,2.20
2023-08-11T06:13:37.353Z,2.15
2023-08-11T06:14:40.342Z,2.00
2023-08-11T06:15:43.326Z,2.15
2023-08-11T06:16:46.498Z,2.03
2023-08-11T06:17:51.563Z,2.22
2023-08-11T06:18:54.569Z,1.87
2023-08-11T06:19:58.955Z,1.70
2023-08-11T06:21:05.277Z,1.95
2023-08-11T06:22:08.832Z,2.17
2023-08-11T06:23:12.050Z,2.00
2023-08-11T06:24:15.047Z,2.20
2023-08-11T06:25:18.345Z,1.58
2023-08-11T06:26:21.348Z,2.00
2023-08-11T06:27:24.469Z,2.20
2023-08-11T06:28:27.456Z,2.05
2023-08-11T06:29:30.526Z,1.80
2023-08-11T06:30:33.525Z,2.00
2023-08-11T06:31:36.520Z,2.17
2023-08-11T06:32:39.594Z,1.83
2023-08-11T06:33:42.723Z,1.65
2023-08-11T06:34:45.772Z,1.90
2023-08-11T06:35:48.992Z,2.15
2023-08-11T06:36:52.015Z,1.85
2023-08-11T06:37:55.669Z,1.80
2023-08-11T06:38:58.746Z,1.80
2023-08-11T06:40:01.851Z,1.85
2023-08-11T06:41:05.064Z,2.00
2023-08-11T06:42:08.223Z,1.87
2023-08-11T06:43:11.253Z,2.00
2023-08-11T06:44:14.211Z,1.80
2023-08-11T06:45:17.388Z,2.20
2023-08-11T06:46:20.599Z,2.10
2023-08-11T06:47:25.143Z,1.83
2023-08-11T06:48:29.197Z,2.10
2023-08-11T06:49:32.150Z,1.90
2023-08-11T06:50:35.354Z,2.17
2023-08-11T06:51:38.418Z,1.80
2023-08-11T06:52:41.442Z,1.90
2023-08-11T06:53:44.377Z,1.90
2023-08-11T06:54:47.355Z,2.00
2023-08-11T06:55:50.287Z,1.98
2023-08-11T06:56:53.295Z,2.05
2023-08-11T06:57:56.300Z,1.75
2023-08-11T06:58:59.741Z,2.00
2023-08-11T07:00:02.695Z,1.83
2023-08-11T07:01:05.710Z,1.90
2023-08-11T07:02:08.767Z,1.73
2023-08-11T07:03:11.797Z,1.95
2023-08-11T07:04:14.873Z,1.85
2023-08-11T07:05:18.090Z,2.00
2023-08-11T07:06:21.013Z,1.85
2023-08-11T07:07:24.117Z,2.08
2023-08-11T07:08:27.169Z,2.08
2023-08-11T07:09:30.313Z,2.15
2023-08-11T07:10:34.198Z,2.00
2023-08-11T07:11:37.400Z,2.10
2023-08-11T07:12:40.508Z,1.98
2023-08-11T07:13:43.789Z,1.70
2023-08-11T07:14:47.237Z,1.70
2023-08-11T07:15:50.120Z,1.85
2023-08-11T07:16:53.133Z,2.00
2023-08-11T07:17:56.257Z,2.00
2023-08-11T07:18:59.343Z,1.70
2023-08-11T07:20:02.382Z,1.67
2023-08-11T07:21:05.467Z,1.83
2023-08-11T07:22:08.721Z,1.75
2023-08-11T07:23:12.442Z,1.65
2023-08-11T07:24:15.464Z,2.30
2023-08-11T07:25:18.564Z,1.50
2023-08-11T07:26:21.700Z,2.15
2023-08-11T07:27:24.776Z,1.92
2023-08-11T07:28:27.866Z,1.60
2023-08-11T07:29:30.764Z,1.87
2023-08-11T07:30:33.733Z,1.60
2023-08-11T07:31:36.760Z,1.62
2023-08-11T07:32:39.913Z,1.62
2023-08-11T07:33:44.035Z,1.70
2023-08-11T07:34:47.093Z,2.05
2023-08-11T07:35:50.116Z,1.95
2023-08-11T07:36:53.419Z,2.00
2023-08-11T07:37:56.779Z,1.67
2023-08-11T07:39:12.857Z,2.17
2023-08-11T07:40:22.949Z,1.75
2023-08-11T07:41:25.843Z,1.80
2023-08-11T07:42:28.819Z,2.00
2023-08-11T07:43:31.858Z,1.65
2023-08-11T07:44:35.424Z,1.67
2023-08-11T07:45:38.399Z,1.80
2023-08-11T07:46:41.726Z,1.60
2023-08-11T07:47:45.017Z,2.12
2023-08-11T07:48:49.290Z,2.12
2023-08-11T07:49:52.360Z,1.85
2023-08-11T07:50:55.430Z,1.70
2023-08-11T07:52:00.996Z,1.75
2023-08-11T07:53:04.853Z,1.92
2023-08-11T07:54:08.217Z,2.03
2023-08-11T07:55:11.794Z,2.05
2023-08-11T07:56:15.549Z,2.03
2023-08-11T07:57:18.790Z,1.70
2023-08-11T07:58:21.959Z,1.85
2023-08-11T07:59:24.898Z,1.70
2023-08-11T08:00:27.969Z,1.65
2023-08-11T08:01:31.207Z,2.22
2023-08-11T08:02:34.664Z,1.87
2023-08-11T08:03:40.138Z,1.83
2023-08-11T08:04:44.033Z,1.87
2023-08-11T08:05:47.063Z,2.10
2023-08-11T08:06:50.302Z,1.40
2023-08-11T08:07:53.223Z,2.00
2023-08-11T08:08:56.098Z,1.80
2023-08-11T08:09:59.093Z,1.90
2023-08-11T08:11:03.169Z,1.90
2023-08-11T08:12:06.763Z,1.70
2023-08-11T08:13:09.805Z,2.00
2023-08-11T08:14:13.449Z,1.70
2023-08-11T08:15:18.472Z,2.03
2023-08-11T08:16:21.978Z,1.77
2023-08-11T08:17:25.159Z,1.90
2023-08-11T08:18:28.343Z,1.90
2023-08-11T08:19:31.349Z,1.70
2023-08-11T08:20:34.314Z,2.20
2023-08-11T08:21:37.371Z,1.62
2023-08-11T08:22:40.867Z,1.67
2023-08-11T08:23:43.795Z,1.70
2023-08-11T08:24:47.056Z,1.85
2023-08-11T08:25:50.059Z,1.73
2023-08-11T08:26:53.129Z,1.75
2023-08-11T08:28:06.310Z,1.55
2023-08-11T08:29:10.930Z,1.80
2023-08-11T08:30:14.263Z,2.03
2023-08-11T08:31:17.518Z,1.70
2023-08-11T08:32:23.356Z,1.70
2023-08-11T08:33:26.441Z,1.90
2023-08-11T08:34:29.488Z,1.83
2023-08-11T08:35:32.562Z,1.77
2023-08-11T08:36:35.623Z,1.73
2023-08-11T08:37:39.146Z,1.90
2023-08-11T08:38:42.170Z,2.10
2023-08-11T08:39:45.916Z,1.85
2023-08-11T08:40:49.696Z,1.58
2023-08-11T08:41:53.213Z,1.65
2023-08-11T08:42:56.369Z,1.70
2023-08-11T08:44:02.225Z,1.65
2023-08-11T08:45:06.502Z,1.70
2023-08-11T08:46:10.827Z,1.73
2023-08-11T08:47:14.480Z,2.00
2023-08-11T08:48:27.080Z,1.83
2023-08-11T08:49:30.323Z,1.80
2023-08-11T08:50:34.000Z,1.60
2023-08-11T08:51:40.677Z,1.83
2023-08-11T08:52:44.283Z,1.75
2023-08-11T08:53:47.657Z,1.70
2023-08-11T08:54:50.689Z,1.50
2023-08-11T08:55:53.981Z,1.87
2023-08-11T08:56:59.253Z,1.87
2023-08-11T08:58:02.384Z,1.50
2023-08-11T08:59:06.719Z,1.62
2023-08-11T09:00:10.192Z,1.80
2023-08-11T09:01:14.716Z,1.58
2023-08-11T09:02:29.511Z,1.80
2023-08-11T09:03:33.516Z,1.92
2023-08-11T09:04:37.295Z,1.62
2023-08-11T09:05:40.432Z,1.75
2023-08-11T09:06:44.412Z,1.90
2023-08-11T09:07:47.548Z,1.77
2023-08-11T09:08:50.610Z,1.90
2023-08-11T09:09:53.573Z,1.80
2023-08-11T09:10:56.559Z,1.65
2023-08-11T09:12:02.399Z,1.62
2023-08-11T09:13:05.657Z,1.80
2023-08-11T09:14:10.143Z,1.80
2023-08-11T09:15:13.785Z,1.98
2023-08-11T09:16:17.065Z,1.65
2023-08-11T09:17:20.325Z,2.17
2023-08-11T09:18:24.157Z,1.75
2023-08-11T09:19:27.538Z,1.83
2023-08-11T09:20:30.740Z,2.00
2023-08-11T09:21:33.821Z,1.73
2023-08-11T09:22:39.796Z,1.70
2023-08-11T09:23:44.611Z,1.62
2023-08-11T09:24:47.946Z,1.67
2023-08-11T09:25:54.932Z,1.70
2023-08-11T09:26:59.819Z,1.50
2023-08-11T09:28:04.066Z,1.70
2023-08-11T09:29:07.167Z,1.45
2023-08-11T09:30:11.558Z,1.75
2023-08-11T09:31:14.716Z,1.62
2023-08-11T09:32:18.094Z,1.90
2023-08-11T09:33:24.086Z,1.60
2023-08-11T09:34:27.433Z,1.65
2023-08-11T09:35:30.855Z,1.60
2023-08-11T09:36:34.268Z,1.50
2023-08-11T09:37:38.324Z,1.40
2023-08-11T09:38:43.115Z,1.58
2023-08-11T09:39:46.292Z,1.60
2023-08-11T09:40:50.243Z,1.52
2023-08-11T09:41:53.199Z,1.90
2023-08-11T09:42:57.484Z,1.55
2023-08-11T09:44:00.759Z,1.90
2023-08-11T09:45:04.095Z,1.80
2023-08-11T09:46:07.310Z,1.70
2023-08-11T09:47:17.557Z,1.50
2023-08-11T09:48:25.624Z,1.50
2023-08-11T09:49:28.635Z,1.60
2023-08-11T09:50:36.356Z,1.55
2023-08-11T09:51:41.362Z,1.40
2023-08-11T09:52:45.044Z,1.50
2023-08-11T09:53:48.623Z,1.40
2023-08-11T09:54:55.029Z,1.58
2023-08-11T09:55:59.569Z,1.52
2023-08-11T09:57:03.162Z,1.55
2023-08-11T09:58:10.144Z,1.50
2023-08-11T09:59:16.148Z,1.90
2023-08-11T10:00:20.990Z,1.40
2023-08-11T10:01:25.433Z,1.58
2023-08-11T10:02:33.343Z,1.52
2023-08-11T10:03:49.688Z,1.40
2023-08-11T10:05:05.568Z,1.60
2023-08-11T10:06:11.691Z,1.70
2023-08-11T10:07:18.741Z,1.60
2023-08-11T10:08:25.571Z,1.45
2023-08-11T10:09:33.601Z,1.52
2023-08-11T10:10:38.832Z,1.70
2023-08-11T10:11:44.987Z,1.52
2023-08-11T10:13:04.509Z,1.85
2023-08-11T10:14:07.986Z,1.60
2023-08-11T10:15:13.135Z,1.70
2023-08-11T10:16:16.955Z,1.50
2023-08-11T10:17:20.673Z,1.30
2023-08-11T10:18:24.978Z,1.40
2023-08-11T10:19:28.326Z,1.40
2023-08-11T10:20:31.741Z,1.65
2023-08-11T10:21:35.889Z,1.60
2023-08-11T10:22:39.409Z,1.50
2023-08-11T10:23:42.766Z,1.70
2023-08-11T10:24:48.258Z,1.75
2023-08-11T10:25:52.555Z,1.98
2023-08-11T10:26:56.029Z,1.80
2023-08-11T10:27:59.898Z,1.50
2023-08-11T10:29:03.318Z,1.80
2023-08-11T10:30:09.362Z,2.10
2023-08-11T10:31:12.640Z,2.30
2023-08-11T10:32:16.348Z,2.37
2023-08-11T10:33:20.804Z,1.80
2023-08-11T10:34:25.251Z,1.90
2023-08-11T10:35:49.001Z,1.77
2023-08-11T10:36:55.269Z,1.85
2023-08-11T10:37:59.191Z,1.98
2023-08-11T10:39:08.072Z,1.80
2023-08-11T10:40:12.100Z,1.65
2023-08-11T10:41:20.113Z,1.73
2023-08-11T10:42:23.212Z,2.00
2023-08-11T10:43:36.707Z,1.77
2023-08-11T10:44:44.836Z,1.70
2023-08-11T10:45:47.966Z,1.50
2023-08-11T10:46:53.101Z,1.90
2023-08-11T10:47:56.998Z,1.77
2023-08-11T10:49:06.266Z,2.03
2023-08-11T10:50:10.387Z,1.87
2023-08-11T10:51:33.858Z,2.17
2023-08-11T10:52:37.241Z,1.90
2023-08-11T10:53:41.605Z,2.03
2023-08-11T10:54:52.568Z,1.85
2023-08-11T10:56:03.132Z,2.08
2023-08-11T10:57:06.315Z,1.80
2023-08-11T10:58:17.946Z,1.50
2023-08-11T10:59:25.804Z,1.77
2023-08-11T11:00:28.711Z,1.60
2023-08-11T11:01:31.708Z,1.77
2023-08-11T11:02:36.704Z,2.00
2023-08-11T11:03:43.002Z,1.83
2023-08-11T11:04:46.340Z,1.50
2023-08-11T11:05:49.358Z,1.75
2023-08-11T11:06:52.575Z,1.70
2023-08-11T11:07:55.706Z,1.92
2023-08-11T11:08:58.587Z,1.52
2023-08-11T11:10:01.732Z,1.87
2023-08-11T11:11:04.773Z,1.90
2023-08-11T11:12:08.308Z,1.77
2023-08-11T11:13:11.648Z,1.70
2023-08-11T11:14:14.914Z,2.03
2023-08-11T11:15:18.236Z,1.62
2023-08-11T11:16:22.367Z,1.80
2023-08-11T11:17:25.449Z,1.52
2023-08-11T11:18:28.972Z,1.60
2023-08-11T11:19:32.580Z,1.50
2023-08-11T11:20:35.686Z,1.70
2023-08-11T11:21:41.960Z,1.50
2023-08-11T11:22:50.121Z,1.50
2023-08-11T11:23:53.229Z,1.48
2023-08-11T11:25:04.223Z,1.50
2023-08-11T11:26:07.105Z,1.45
2023-08-11T11:27:10.111Z,1.70
2023-08-11T11:28:13.974Z,1.77
2023-08-11T11:29:17.882Z,1.60
2023-08-11T11:30:21.479Z,1.73
2023-08-11T11:31:27.368Z,1.55
2023-08-11T11:32:30.362Z,1.90
2023-08-11T11:33:33.519Z,1.80
2023-08-11T11:34:38.954Z,1.90
2023-08-11T11:35:42.362Z,1.92
2023-08-11T11:36:45.525Z,1.70
2023-08-11T11:37:48.713Z,1.80
2023-08-11T11:38:53.381Z,1.80
2023-08-11T11:39:57.439Z,1.70
2023-08-11T11:41:00.700Z,1.90
2023-08-11T11:42:08.400Z,1.80
2023-08-11T11:43:12.052Z,1.60
2023-08-11T11:44:16.112Z,1.70
2023-08-11T11:45:19.490Z,1.90
2023-08-11T11:46:25.433Z,1.48
2023-08-11T11:47:29.285Z,1.80
2023-08-11T11:48:32.273Z,1.60
2023-08-11T11:49:35.555Z,1.77
2023-08-11T11:50:38.821Z,1.48
2023-08-11T11:51:42.979Z,1.62
2023-08-11T11:52:48.846Z,1.70
2023-08-11T11:53:53.428Z,1.70
2023-08-11T11:54:57.016Z,1.90
2023-08-11T11:56:00.182Z,1.62
2023-08-11T11:57:09.081Z,1.58
2023-08-11T11:58:19.349Z,1.45
2023-08-11T11:59:23.010Z,1.55
2023-08-11T12:00:26.935Z,1.45
2023-08-11T12:01:30.685Z,1.70
2023-08-11T12:02:33.976Z,1.60
2023-08-11T12:03:37.608Z,1.75
2023-08-11T12:04:44.035Z,1.65
2023-08-11T12:05:47.157Z,2.10
2023-08-11T12:06:50.307Z,1.50
2023-08-11T12:07:53.349Z,1.27
2023-08-11T12:09:05.295Z,1.70
2023-08-11T12:10:08.724Z,1.70
2023-08-11T12:11:14.214Z,1.33
2023-08-11T12:12:17.209Z,1.60
2023-08-11T12:13:20.239Z,1.42
2023-08-11T12:14:27.174Z,1.40
2023-08-11T12:15:32.661Z,1.60
2023-08-11T12:16:36.835Z,1.33
2023-08-11T12:17:39.730Z,1.60
2023-08-11T12:18:43.335Z,1.33
2023-08-11T12:19:47.521Z,1.70
2023-08-11T12:20:51.781Z,1.40
2023-08-11T12:21:54.785Z,1.70
2023-08-11T12:22:57.902Z,1.60
2023-08-11T12:24:00.944Z,1.52
2023-08-11T12:25:04.936Z,1.65
2023-08-11T12:26:09.174Z,1.50
2023-08-11T12:27:12.641Z,1.60
2023-08-11T12:28:15.592Z,1.45
2023-08-11T12:29:18.589Z,1.60
2023-08-11T12:30:21.748Z,1.40
2023-08-11T12:31:24.773Z,1.55
2023-08-11T12:32:27.666Z,1.50
2023-08-11T12:33:31.265Z,1.60
2023-08-11T12:34:34.600Z,1.30
2023-08-11T12:35:38.023Z,1.60
2023-08-11T12:36:41.186Z,1.75
2023-08-11T12:37:44.048Z,1.20
2023-08-11T12:38:49.139Z,1.60
2023-08-11T12:39:52.549Z,1.50
2023-08-11T12:40:55.475Z,2.15
2023-08-11T12:41:58.406Z,1.70
2023-08-11T12:43:01.964Z,1.52
2023-08-11T12:44:05.250Z,1.70
2023-08-11T12:45:08.711Z,1.60
2023-08-11T12:46:11.903Z,1.67
2023-08-11T12:47:14.899Z,1.50
2023-08-11T12:48:17.928Z,1.62
2023-08-11T12:49:21.090Z,1.30
2023-08-11T12:50:26.151Z,1.30
2023-08-11T12:51:29.169Z,1.50
2023-08-11T12:52:32.119Z,1.70
2023-08-11T12:53:35.787Z,1.35
2023-08-11T12:54:38.865Z,1.50
2023-08-11T12:55:42.118Z,1.40
2023-08-11T12:56:46.589Z,1.40
2023-08-11T12:57:49.702Z,1.50
2023-08-11T12:58:53.459Z,1.60
2023-08-11T12:59:56.708Z,1.73
2023-08-11T13:01:00.617Z,1.58
2023-08-11T13:02:03.675Z,1.60
2023-08-11T13:03:06.807Z,1.62
2023-08-11T13:04:09.880Z,1.30
2023-08-11T13:05:12.881Z,1.12
2023-08-11T13:06:16.075Z,1.50
2023-08-11T13:07:19.326Z,1.10
2023-08-11T13:08:22.621Z,1.40
2023-08-11T13:09:25.686Z,1.33
2023-08-11T13:10:28.899Z,1.30
2023-08-11T13:11:32.113Z,1.33
2023-08-11T13:12:35.571Z,1.48
2023-08-11T13:13:38.552Z,1.40
2023-08-11T13:14:42.587Z,1.30
2023-08-11T13:15:46.401Z,1.45
2023-08-11T13:16:49.625Z,1.40
2023-08-11T13:17:52.671Z,1.40
2023-08-11T13:18:55.738Z,1.40
2023-08-11T13:19:59.321Z,1.40
2023-08-11T13:21:02.597Z,1.27
2023-08-11T13:22:09.695Z,1.40
2023-08-11T13:23:13.004Z,1.25
2023-08-11T13:24:17.795Z,1.67
2023-08-11T13:25:23.298Z,1.20
2023-08-11T13:26:26.516Z,1.55
2023-08-11T13:27:29.555Z,1.35
2023-08-11T13:28:32.688Z,1.15
2023-08-11T13:29:35.877Z,1.42
2023-08-11T13:30:41.602Z,1.25
2023-08-11T13:31:46.340Z,1.40
2023-08-11T13:32:49.361Z,1.27
2023-08-11T13:33:52.579Z,1.30
2023-08-11T13:34:55.521Z,1.33
2023-08-11T13:35:58.680Z,1.42
2023-08-11T13:37:01.832Z,1.33
2023-08-11T13:38:05.002Z,1.50
2023-08-11T13:39:08.128Z,1.27
2023-08-11T13:40:11.559Z,1.12
2023-08-11T13:41:14.587Z,1.30
2023-08-11T13:42:18.146Z,1.30
2023-08-11T13:43:23.677Z,1.20
2023-08-11T13:44:26.722Z,1.45
2023-08-11T13:45:29.928Z,1.48
2023-08-11T13:46:34.050Z,1.20
2023-08-11T13:47:37.045Z,1.42
2023-08-11T13:48:40.393Z,1.35
2023-08-11T13:49:43.455Z,1.27
2023-08-11T13:50:46.580Z,1.20
2023-08-11T13:51:49.589Z,1.20
2023-08-11T13:52:52.555Z,1.08
2023-08-11T13:53:55.513Z,1.15
2023-08-11T13:55:00.063Z,1.25
2023-08-11T13:56:03.215Z,1.20
2023-08-11T13:57:06.335Z,1.20
2023-08-11T13:58:09.395Z,1.27
2023-08-11T13:59:12.558Z,1.12
2023-08-11T14:00:16.224Z,1.30
2023-08-11T14:01:19.346Z,1.20
2023-08-11T14:02:22.530Z,1.25
2023-08-11T14:03:25.548Z,1.17
2023-08-11T14:04:28.492Z,1.20
2023-08-11T14:05:31.671Z,1.35
2023-08-11T14:06:34.875Z,1.02
2023-08-11T14:07:37.908Z,1.33
2023-08-11T14:08:41.391Z,1.20
2023-08-11T14:09:44.432Z,1.20
2023-08-11T14:10:48.322Z,1.50
2023-08-11T14:11:51.386Z,1.10
2023-08-11T14:12:54.929Z,1.40
2023-08-11T14:13:57.987Z,1.05